Pink Ribbon Run 2018 Cedar Falls
Skip Navigation Links
Results
Details
10 06 2018
HyperLink
Page 1 of 17 (831 items)
[1]234567...14151617
Pos
Race No
Fav
Share
Print
Video
Name
Time
Category
Cat Pos
Age
Gender
Gen Pos
Dist
Pace *
Finish
O/Pos
C/Pos
G/Pos
162727Ben Olson00:31:05.160+475Male603.10710:00 min/m00:31:05.1164460
165634Patrick Lyons00:31:09.450-591057Male613.10710:01 min/m00:31:09.41521058
164809Sara Schafer00:31:08.919-291822Female1043.10710:01 min/m00:31:08.91561897
163362Sidney Dilly00:31:08.719-291723Female1033.10710:01 min/m00:31:08.71531795
166414Amanda Fisher00:31:09.830-392233Female1053.10710:01 min/m00:31:09.817322112
167384Tami Egan00:31:10.240-492244Female1063.10710:01 min/m00:31:10.21582199
168732Theresa Pagel00:31:10.350-592052Female1073.10710:01 min/m00:31:10.31571898
169436Allie Geerts00:31:15.119-291922Female1083.10710:03 min/m00:31:15.116620106
170131Kate Ross00:31:26.319-292020Female1093.10710:07 min/m00:31:26.316119102
171286Amelia Bryant00:31:29.518 & under2512Female1103.10710:08 min/m00:31:29.516022101
172893Kendall Suckow00:31:32.618 & under2610Female1113.10710:09 min/m00:31:32.616223103
173636Olivia Maklenburg00:31:32.718 & under2715Female1123.10710:09 min/m00:31:32.716324104
174709Rosalie Nebelski00:31:38.819-292127Female1133.10710:11 min/m00:31:38.817421113
177556Sydney Keninger00:31:49.119-292223Female1153.10710:14 min/m00:31:49.119523126
17641Angela Hamilton00:31:48.550-592150Female1143.10710:14 min/m00:31:48.517621114
175382Wyatt Eden00:31:48.119-291425Male623.10710:14 min/m00:31:48.11941469
178214Michele Arends00:31:53.460+163Female1163.10710:15 min/m00:31:53.41691109
180107Kristin Teig Torres00:31:55.040-492349Female1173.10710:16 min/m00:31:55.017922117
183457Dakota Grattan00:31:56.619-292324Female1203.10710:16 min/m00:31:56.617722115
182921Ava Torres00:31:56.018 & under2812Female1193.10710:16 min/m00:31:56.017828116
181456Elvisa Grahovic Dizdarevic00:31:55.630-392333Female1183.10710:16 min/m00:31:55.618223119
184255Amy Boeckmann00:31:57.030-392439Female1213.10710:16 min/m00:31:57.020027129
179336Edni Dautovic00:31:54.518 & under2018Male633.10710:16 min/m00:31:54.51802063
1853205Kelsey Huntuner00:31:57.419-292429Female1223.10710:17 min/m00:31:57.420525134
186995Ann Wolf00:31:57.450-592252Female1233.10710:17 min/m00:31:57.418422120
187464John Hamilton00:32:03.250-591151Male643.10710:19 min/m00:32:03.21751162
188941Tyler Vincent00:32:10.740-49440Male653.10710:21 min/m00:32:10.7183464
189631Kristi Lutz00:32:18.130-392531Female1243.10710:23 min/m00:32:18.118524121
190675Tiffany Meyer00:32:22.830-392637Female1253.10710:25 min/m00:32:22.820128130
191994Lauren Wittmer00:32:25.030-392730Female1263.10710:26 min/m00:32:25.018625122
193857Floyd Smith00:32:30.840-49642Male673.10710:27 min/m00:32:30.8192868
192753Sean Plante00:32:30.040-49548Male663.10710:27 min/m00:32:30.0187565
194856Cadence Smith00:32:31.918 & under2911Female1273.10710:28 min/m00:32:31.919330125
195415Jodi Fisher00:32:35.440-492440Female1283.10710:29 min/m00:32:35.418824123
196431Mason Fromm00:32:44.440-49743Male683.10710:32 min/m00:32:44.4191767
197707Grace Nagle00:32:44.618 & under308Female1293.10710:32 min/m00:32:44.618929124
198702Tj Nagle00:32:47.340-49842Male693.10710:33 min/m00:32:47.3190666
199672Linsey Messerschmidt00:32:52.819-292527Female1303.10710:34 min/m00:32:52.822031146
200843Hailey Simon00:33:01.918 & under3116Female1313.10710:37 min/m00:33:01.920431133
201329Lisa Cox00:33:13.550-592356Female1323.10710:41 min/m00:33:13.520224131
202168Amel Dizdarevic00:33:16.430-391232Male703.10710:42 min/m00:33:16.41971271
203821Bill Schuerman00:33:17.360+571Male713.10710:42 min/m00:33:17.3196570
204661Andrea Mcgough00:33:20.450-592450Female1333.10710:43 min/m00:33:20.419823127
205964Jack Wedemeier00:33:25.218 & under2111Male723.10710:45 min/m00:33:25.22152173
206694Lawrence Mullen00:33:27.360+669Male733.10710:46 min/m00:33:27.3209672
208963Deirdre Weber00:33:34.240-492546Female1353.10710:48 min/m00:33:34.220625135
207961Malori Weber00:33:33.918 & under329Female1343.10710:48 min/m00:33:33.920732136
209106Jeannie Suckow00:33:37.730-392837Female1363.10710:49 min/m00:33:37.719926128
210147Katee Thein00:33:39.119-292625Female1373.10710:49 min/m00:33:39.120324132
212979Karysta Wheeler00:33:54.119-292729Female1393.10710:54 min/m00:33:54.121628143
Page 1 of 17 (831 items)
[1]234567...14151617
fb